sensor_id;sensor_type;location;lat;lon;timestamp;P1;durP1;ratioP1;P2;durP2;ratioP2
61295;SDS011;47168;48.104;20.730;2022-07-05T00:00:34;9.48;;;5.47;;
61295;SDS011;47168;48.104;20.730;2022-07-05T00:03:00;11.52;;;5.50;;
61295;SDS011;47168;48.104;20.730;2022-07-05T00:05:25;10.40;;;5.20;;
61295;SDS011;47168;48.104;20.730;2022-07-05T00:07:51;12.63;;;6.13;;
61295;SDS011;47168;48.104;20.730;2022-07-05T00:10:16;9.32;;;5.50;;
61295;SDS011;47168;48.104;20.730;2022-07-05T00:12:41;8.88;;;5.30;;
61295;SDS011;47168;48.104;20.730;2022-07-05T00:15:07;8.82;;;5.35;;
61295;SDS011;47168;48.104;20.730;2022-07-05T00:17:33;9.48;;;5.28;;
61295;SDS011;47168;48.104;20.730;2022-07-05T00:19:58;10.15;;;5.25;;
61295;SDS011;47168;48.104;20.730;2022-07-05T00:22:23;8.75;;;5.10;;
61295;SDS011;47168;48.104;20.730;2022-07-05T00:24:49;9.40;;;4.95;;
61295;SDS011;47168;48.104;20.730;2022-07-05T00:27:15;10.20;;;5.40;;
61295;SDS011;47168;48.104;20.730;2022-07-05T00:29:41;11.70;;;5.80;;
61295;SDS011;47168;48.104;20.730;2022-07-05T00:32:06;10.98;;;5.57;;
61295;SDS011;47168;48.104;20.730;2022-07-05T00:34:31;10.65;;;5.32;;
61295;SDS011;47168;48.104;20.730;2022-07-05T00:36:57;11.77;;;5.20;;
61295;SDS011;47168;48.104;20.730;2022-07-05T00:39:22;10.73;;;5.53;;
61295;SDS011;47168;48.104;20.730;2022-07-05T00:41:48;9.50;;;5.45;;
61295;SDS011;47168;48.104;20.730;2022-07-05T00:44:13;10.43;;;5.65;;
61295;SDS011;47168;48.104;20.730;2022-07-05T00:46:39;9.63;;;5.60;;
61295;SDS011;47168;48.104;20.730;2022-07-05T00:49:07;11.40;;;5.90;;
61295;SDS011;47168;48.104;20.730;2022-07-05T00:51:33;11.43;;;5.47;;
61295;SDS011;47168;48.104;20.730;2022-07-05T00:54:01;10.02;;;5.47;;
61295;SDS011;47168;48.104;20.730;2022-07-05T00:56:27;9.70;;;5.70;;
61295;SDS011;47168;48.104;20.730;2022-07-05T00:58:53;12.73;;;5.53;;
61295;SDS011;47168;48.104;20.730;2022-07-05T01:01:19;9.75;;;5.47;;
61295;SDS011;47168;48.104;20.730;2022-07-05T01:03:45;10.02;;;5.40;;
61295;SDS011;47168;48.104;20.730;2022-07-05T01:06:12;9.00;;;5.30;;
61295;SDS011;47168;48.104;20.730;2022-07-05T01:08:39;9.88;;;5.82;;
61295;SDS011;47168;48.104;20.730;2022-07-05T01:11:06;9.55;;;5.30;;
61295;SDS011;47168;48.104;20.730;2022-07-05T01:13:33;12.15;;;5.95;;
61295;SDS011;47168;48.104;20.730;2022-07-05T01:16:00;10.75;;;6.05;;
61295;SDS011;47168;48.104;20.730;2022-07-05T01:18:26;9.77;;;5.57;;
61295;SDS011;47168;48.104;20.730;2022-07-05T01:20:53;11.55;;;6.35;;
61295;SDS011;47168;48.104;20.730;2022-07-05T01:23:19;10.57;;;5.68;;
61295;SDS011;47168;48.104;20.730;2022-07-05T01:25:46;9.57;;;5.53;;
61295;SDS011;47168;48.104;20.730;2022-07-05T01:28:12;10.02;;;5.78;;
61295;SDS011;47168;48.104;20.730;2022-07-05T01:30:38;11.13;;;5.85;;
61295;SDS011;47168;48.104;20.730;2022-07-05T01:33:05;9.90;;;5.68;;
61295;SDS011;47168;48.104;20.730;2022-07-05T01:35:32;11.00;;;5.85;;
61295;SDS011;47168;48.104;20.730;2022-07-05T01:37:58;13.27;;;6.45;;
61295;SDS011;47168;48.104;20.730;2022-07-05T01:40:24;10.25;;;5.93;;
61295;SDS011;47168;48.104;20.730;2022-07-05T01:42:49;11.02;;;6.20;;
61295;SDS011;47168;48.104;20.730;2022-07-05T01:45:15;12.30;;;5.95;;
61295;SDS011;47168;48.104;20.730;2022-07-05T01:48:00;10.32;;;6.15;;
61295;SDS011;47168;48.104;20.730;2022-07-05T01:50:28;12.52;;;6.53;;
61295;SDS011;47168;48.104;20.730;2022-07-05T01:52:56;11.90;;;6.20;;
61295;SDS011;47168;48.104;20.730;2022-07-05T01:55:25;10.73;;;5.78;;
61295;SDS011;47168;48.104;20.730;2022-07-05T01:57:51;14.30;;;6.40;;
61295;SDS011;47168;48.104;20.730;2022-07-05T02:00:17;11.00;;;6.00;;
61295;SDS011;47168;48.104;20.730;2022-07-05T02:02:42;10.73;;;5.85;;
61295;SDS011;47168;48.104;20.730;2022-07-05T02:05:08;11.55;;;6.57;;
61295;SDS011;47168;48.104;20.730;2022-07-05T02:07:33;12.13;;;6.97;;
61295;SDS011;47168;48.104;20.730;2022-07-05T02:09:59;10.93;;;6.75;;
61295;SDS011;47168;48.104;20.730;2022-07-05T02:12:24;10.15;;;6.10;;
61295;SDS011;47168;48.104;20.730;2022-07-05T02:14:50;11.25;;;6.47;;
61295;SDS011;47168;48.104;20.730;2022-07-05T02:17:15;11.07;;;6.78;;
61295;SDS011;47168;48.104;20.730;2022-07-05T02:19:40;12.63;;;6.75;;
61295;SDS011;47168;48.104;20.730;2022-07-05T02:22:06;13.10;;;6.95;;
61295;SDS011;47168;48.104;20.730;2022-07-05T02:24:32;11.63;;;6.47;;
61295;SDS011;47168;48.104;20.730;2022-07-05T02:26:58;12.15;;;6.43;;
61295;SDS011;47168;48.104;20.730;2022-07-05T02:29:24;12.15;;;6.63;;
61295;SDS011;47168;48.104;20.730;2022-07-05T02:31:49;10.57;;;6.55;;
61295;SDS011;47168;48.104;20.730;2022-07-05T02:34:15;12.05;;;7.03;;
61295;SDS011;47168;48.104;20.730;2022-07-05T02:36:40;14.35;;;7.63;;
61295;SDS011;47168;48.104;20.730;2022-07-05T02:39:06;13.60;;;7.40;;
61295;SDS011;47168;48.104;20.730;2022-07-05T02:41:31;12.00;;;7.68;;
61295;SDS011;47168;48.104;20.730;2022-07-05T02:43:57;13.27;;;8.20;;
61295;SDS011;47168;48.104;20.730;2022-07-05T02:46:22;12.70;;;7.25;;
61295;SDS011;47168;48.104;20.730;2022-07-05T02:48:50;14.32;;;8.55;;
61295;SDS011;47168;48.104;20.730;2022-07-05T02:51:16;13.52;;;8.23;;
61295;SDS011;47168;48.104;20.730;2022-07-05T02:53:41;12.63;;;7.38;;
61295;SDS011;47168;48.104;20.730;2022-07-05T02:56:07;13.55;;;8.05;;
61295;SDS011;47168;48.104;20.730;2022-07-05T02:58:32;14.75;;;7.88;;
61295;SDS011;47168;48.104;20.730;2022-07-05T03:00:57;13.07;;;7.60;;
61295;SDS011;47168;48.104;20.730;2022-07-05T03:03:23;13.00;;;7.32;;
61295;SDS011;47168;48.104;20.730;2022-07-05T03:05:49;12.77;;;7.20;;
61295;SDS011;47168;48.104;20.730;2022-07-05T03:08:14;14.52;;;7.20;;
61295;SDS011;47168;48.104;20.730;2022-07-05T03:10:40;12.07;;;7.07;;
61295;SDS011;47168;48.104;20.730;2022-07-05T03:13:05;13.48;;;7.35;;
61295;SDS011;47168;48.104;20.730;2022-07-05T03:15:31;12.48;;;7.35;;
61295;SDS011;47168;48.104;20.730;2022-07-05T03:17:57;13.98;;;7.63;;
61295;SDS011;47168;48.104;20.730;2022-07-05T03:20:22;15.20;;;7.80;;
61295;SDS011;47168;48.104;20.730;2022-07-05T03:22:47;13.98;;;8.05;;
61295;SDS011;47168;48.104;20.730;2022-07-05T03:25:13;12.70;;;7.93;;
61295;SDS011;47168;48.104;20.730;2022-07-05T03:27:38;12.50;;;7.43;;
61295;SDS011;47168;48.104;20.730;2022-07-05T03:30:04;13.32;;;7.03;;
61295;SDS011;47168;48.104;20.730;2022-07-05T03:32:30;14.77;;;6.93;;
61295;SDS011;47168;48.104;20.730;2022-07-05T03:34:55;12.30;;;7.50;;
61295;SDS011;47168;48.104;20.730;2022-07-05T03:37:21;12.57;;;7.03;;
61295;SDS011;47168;48.104;20.730;2022-07-05T03:39:46;13.65;;;7.28;;
61295;SDS011;47168;48.104;20.730;2022-07-05T03:42:12;15.80;;;7.50;;
61295;SDS011;47168;48.104;20.730;2022-07-05T03:44:37;13.13;;;7.82;;
61295;SDS011;47168;48.104;20.730;2022-07-05T03:47:03;13.85;;;7.60;;
61295;SDS011;47168;48.104;20.730;2022-07-05T03:49:28;12.73;;;7.45;;
61295;SDS011;47168;48.104;20.730;2022-07-05T03:51:54;13.80;;;7.93;;
61295;SDS011;47168;48.104;20.730;2022-07-05T03:54:19;14.05;;;7.65;;
61295;SDS011;47168;48.104;20.730;2022-07-05T03:56:44;13.95;;;8.10;;
61295;SDS011;47168;48.104;20.730;2022-07-05T03:59:10;14.63;;;7.70;;
61295;SDS011;47168;48.104;20.730;2022-07-05T04:01:35;13.60;;;7.07;;
61295;SDS011;47168;48.104;20.730;2022-07-05T04:04:01;15.23;;;8.20;;
61295;SDS011;47168;48.104;20.730;2022-07-05T04:06:26;16.52;;;7.95;;
61295;SDS011;47168;48.104;20.730;2022-07-05T04:08:52;14.32;;;7.50;;
61295;SDS011;47168;48.104;20.730;2022-07-05T04:11:18;14.00;;;7.63;;
61295;SDS011;47168;48.104;20.730;2022-07-05T04:13:44;15.10;;;8.25;;
61295;SDS011;47168;48.104;20.730;2022-07-05T04:16:09;13.43;;;7.82;;
61295;SDS011;47168;48.104;20.730;2022-07-05T04:18:35;13.70;;;7.13;;
61295;SDS011;47168;48.104;20.730;2022-07-05T04:21:01;14.10;;;7.10;;
61295;SDS011;47168;48.104;20.730;2022-07-05T04:23:28;15.85;;;7.70;;
61295;SDS011;47168;48.104;20.730;2022-07-05T04:25:53;13.18;;;6.68;;
61295;SDS011;47168;48.104;20.730;2022-07-05T04:28:19;11.40;;;6.65;;
61295;SDS011;47168;48.104;20.730;2022-07-05T04:30:44;13.38;;;6.88;;
61295;SDS011;47168;48.104;20.730;2022-07-05T04:33:09;12.52;;;7.30;;
61295;SDS011;47168;48.104;20.730;2022-07-05T04:35:35;16.08;;;7.55;;
61295;SDS011;47168;48.104;20.730;2022-07-05T04:38:00;11.63;;;6.90;;
61295;SDS011;47168;48.104;20.730;2022-07-05T04:40:26;11.27;;;6.93;;
61295;SDS011;47168;48.104;20.730;2022-07-05T04:42:51;13.68;;;6.53;;
61295;SDS011;47168;48.104;20.730;2022-07-05T04:45:16;11.57;;;6.90;;
61295;SDS011;47168;48.104;20.730;2022-07-05T04:47:42;14.10;;;6.63;;
61295;SDS011;47168;48.104;20.730;2022-07-05T04:50:08;10.00;;;6.38;;
61295;SDS011;47168;48.104;20.730;2022-07-05T04:52:33;11.27;;;6.60;;
61295;SDS011;47168;48.104;20.730;2022-07-05T04:54:59;12.60;;;7.15;;
61295;SDS011;47168;48.104;20.730;2022-07-05T04:57:24;17.55;;;7.28;;
61295;SDS011;47168;48.104;20.730;2022-07-05T04:59:50;14.55;;;8.15;;
61295;SDS011;47168;48.104;20.730;2022-07-05T05:02:16;12.27;;;7.65;;
61295;SDS011;47168;48.104;20.730;2022-07-05T05:04:41;13.15;;;7.47;;
61295;SDS011;47168;48.104;20.730;2022-07-05T05:07:06;16.70;;;7.53;;
61295;SDS011;47168;48.104;20.730;2022-07-05T05:09:32;14.57;;;8.32;;
61295;SDS011;47168;48.104;20.730;2022-07-05T05:11:57;14.57;;;8.80;;
61295;SDS011;47168;48.104;20.730;2022-07-05T05:14:23;16.00;;;9.00;;
61295;SDS011;47168;48.104;20.730;2022-07-05T05:16:48;15.80;;;9.05;;
61295;SDS011;47168;48.104;20.730;2022-07-05T05:19:13;14.68;;;8.65;;
61295;SDS011;47168;48.104;20.730;2022-07-05T05:21:39;15.13;;;8.88;;
61295;SDS011;47168;48.104;20.730;2022-07-05T05:24:04;13.77;;;8.18;;
61295;SDS011;47168;48.104;20.730;2022-07-05T05:26:30;13.73;;;8.68;;
61295;SDS011;47168;48.104;20.730;2022-07-05T05:28:56;15.35;;;8.88;;
61295;SDS011;47168;48.104;20.730;2022-07-05T05:31:21;15.73;;;8.32;;
61295;SDS011;47168;48.104;20.730;2022-07-05T05:33:47;14.77;;;8.35;;
61295;SDS011;47168;48.104;20.730;2022-07-05T05:36:12;15.40;;;8.05;;
61295;SDS011;47168;48.104;20.730;2022-07-05T05:38:38;13.05;;;7.85;;
61295;SDS011;47168;48.104;20.730;2022-07-05T05:41:03;13.63;;;7.68;;
61295;SDS011;47168;48.104;20.730;2022-07-05T05:43:29;11.75;;;7.40;;
61295;SDS011;47168;48.104;20.730;2022-07-05T05:45:55;12.68;;;7.15;;
61295;SDS011;47168;48.104;20.730;2022-07-05T05:48:20;10.75;;;6.90;;
61295;SDS011;47168;48.104;20.730;2022-07-05T05:50:46;11.27;;;6.93;;
61295;SDS011;47168;48.104;20.730;2022-07-05T05:53:12;10.85;;;6.80;;
61295;SDS011;47168;48.104;20.730;2022-07-05T05:55:37;9.75;;;6.47;;
61295;SDS011;47168;48.104;20.730;2022-07-05T05:58:22;12.18;;;6.65;;
61295;SDS011;47168;48.104;20.730;2022-07-05T06:00:50;11.77;;;6.57;;
61295;SDS011;47168;48.104;20.730;2022-07-05T06:03:23;9.60;;;6.55;;
61295;SDS011;47168;48.104;20.730;2022-07-05T06:05:49;10.50;;;6.47;;
61295;SDS011;47168;48.104;20.730;2022-07-05T06:08:15;11.15;;;5.78;;
61295;SDS011;47168;48.104;20.730;2022-07-05T06:10:40;10.05;;;6.32;;
61295;SDS011;47168;48.104;20.730;2022-07-05T06:13:07;10.20;;;6.53;;
61295;SDS011;47168;48.104;20.730;2022-07-05T06:15:34;9.32;;;5.88;;
61295;SDS011;47168;48.104;20.730;2022-07-05T06:18:00;9.80;;;6.22;;
61295;SDS011;47168;48.104;20.730;2022-07-05T06:20:26;10.68;;;6.40;;
61295;SDS011;47168;48.104;20.730;2022-07-05T06:22:54;11.18;;;6.47;;
61295;SDS011;47168;48.104;20.730;2022-07-05T06:25:20;11.65;;;7.03;;
61295;SDS011;47168;48.104;20.730;2022-07-05T06:27:48;15.18;;;6.78;;
61295;SDS011;47168;48.104;20.730;2022-07-05T06:30:16;12.25;;;7.20;;
61295;SDS011;47168;48.104;20.730;2022-07-05T06:32:44;13.70;;;6.65;;
61295;SDS011;47168;48.104;20.730;2022-07-05T06:35:10;11.73;;;6.57;;
61295;SDS011;47168;48.104;20.730;2022-07-05T06:40:17;13.23;;;7.10;;
61295;SDS011;47168;48.104;20.730;2022-07-05T06:42:47;13.93;;;6.60;;
61295;SDS011;47168;48.104;20.730;2022-07-05T06:45:13;12.57;;;6.30;;
61295;SDS011;47168;48.104;20.730;2022-07-05T06:47:39;12.50;;;6.47;;
61295;SDS011;47168;48.104;20.730;2022-07-05T06:50:04;9.95;;;6.18;;
61295;SDS011;47168;48.104;20.730;2022-07-05T06:52:31;10.80;;;6.25;;
61295;SDS011;47168;48.104;20.730;2022-07-05T06:55:00;12.18;;;6.45;;
61295;SDS011;47168;48.104;20.730;2022-07-05T06:57:26;9.48;;;6.10;;
61295;SDS011;47168;48.104;20.730;2022-07-05T06:59:52;10.93;;;6.65;;
61295;SDS011;47168;48.104;20.730;2022-07-05T07:02:17;12.38;;;6.50;;
61295;SDS011;47168;48.104;20.730;2022-07-05T07:04:44;10.00;;;6.15;;
61295;SDS011;47168;48.104;20.730;2022-07-05T07:07:10;10.85;;;6.50;;
61295;SDS011;47168;48.104;20.730;2022-07-05T07:09:57;10.88;;;6.32;;
61295;SDS011;47168;48.104;20.730;2022-07-05T07:12:26;10.82;;;6.90;;
61295;SDS011;47168;48.104;20.730;2022-07-05T07:14:52;10.70;;;6.20;;
61295;SDS011;47168;48.104;20.730;2022-07-05T07:17:18;10.60;;;6.10;;
61295;SDS011;47168;48.104;20.730;2022-07-05T07:19:44;11.07;;;6.65;;
61295;SDS011;47168;48.104;20.730;2022-07-05T07:22:09;10.52;;;6.50;;
61295;SDS011;47168;48.104;20.730;2022-07-05T07:24:35;11.27;;;6.82;;
61295;SDS011;47168;48.104;20.730;2022-07-05T07:27:00;10.52;;;6.68;;
61295;SDS011;47168;48.104;20.730;2022-07-05T07:29:30;10.55;;;6.43;;
61295;SDS011;47168;48.104;20.730;2022-07-05T07:31:57;11.63;;;7.00;;
61295;SDS011;47168;48.104;20.730;2022-07-05T07:34:23;11.93;;;6.22;;
61295;SDS011;47168;48.104;20.730;2022-07-05T07:36:49;9.93;;;6.60;;
61295;SDS011;47168;48.104;20.730;2022-07-05T07:39:14;9.80;;;6.35;;
61295;SDS011;47168;48.104;20.730;2022-07-05T07:41:40;10.15;;;6.40;;
61295;SDS011;47168;48.104;20.730;2022-07-05T07:44:05;10.15;;;6.40;;
61295;SDS011;47168;48.104;20.730;2022-07-05T07:46:31;10.55;;;6.20;;
61295;SDS011;47168;48.104;20.730;2022-07-05T07:48:56;10.75;;;6.25;;
61295;SDS011;47168;48.104;20.730;2022-07-05T07:51:22;9.80;;;6.13;;
61295;SDS011;47168;48.104;20.730;2022-07-05T07:53:48;11.75;;;6.72;;
61295;SDS011;47168;48.104;20.730;2022-07-05T07:56:13;11.45;;;6.78;;
61295;SDS011;47168;48.104;20.730;2022-07-05T07:58:39;10.88;;;7.38;;
61295;SDS011;47168;48.104;20.730;2022-07-05T08:01:04;11.15;;;6.90;;
61295;SDS011;47168;48.104;20.730;2022-07-05T08:03:35;10.43;;;6.32;;
61295;SDS011;47168;48.104;20.730;2022-07-05T08:06:01;10.10;;;6.28;;
61295;SDS011;47168;48.104;20.730;2022-07-05T08:08:27;11.27;;;5.72;;
61295;SDS011;47168;48.104;20.730;2022-07-05T08:10:52;9.52;;;5.97;;
61295;SDS011;47168;48.104;20.730;2022-07-05T08:13:18;9.75;;;5.93;;
61295;SDS011;47168;48.104;20.730;2022-07-05T08:15:43;9.07;;;5.75;;
61295;SDS011;47168;48.104;20.730;2022-07-05T08:18:09;8.90;;;6.03;;
61295;SDS011;47168;48.104;20.730;2022-07-05T08:20:53;10.70;;;6.40;;
61295;SDS011;47168;48.104;20.730;2022-07-05T08:23:37;9.02;;;5.90;;
61295;SDS011;47168;48.104;20.730;2022-07-05T08:26:02;11.00;;;6.10;;
61295;SDS011;47168;48.104;20.730;2022-07-05T08:28:27;10.00;;;5.90;;
61295;SDS011;47168;48.104;20.730;2022-07-05T08:30:53;9.77;;;6.20;;
61295;SDS011;47168;48.104;20.730;2022-07-05T08:33:19;9.82;;;6.30;;
61295;SDS011;47168;48.104;20.730;2022-07-05T08:35:44;10.32;;;6.15;;
61295;SDS011;47168;48.104;20.730;2022-07-05T08:38:09;9.80;;;6.05;;
61295;SDS011;47168;48.104;20.730;2022-07-05T08:40:37;10.25;;;6.03;;
61295;SDS011;47168;48.104;20.730;2022-07-05T08:43:08;11.05;;;7.18;;
61295;SDS011;47168;48.104;20.730;2022-07-05T08:45:36;11.05;;;7.20;;
61295;SDS011;47168;48.104;20.730;2022-07-05T08:48:02;10.48;;;6.63;;
61295;SDS011;47168;48.104;20.730;2022-07-05T08:50:29;9.93;;;6.25;;
61295;SDS011;47168;48.104;20.730;2022-07-05T08:52:56;10.55;;;6.95;;
61295;SDS011;47168;48.104;20.730;2022-07-05T08:55:24;9.40;;;6.10;;
61295;SDS011;47168;48.104;20.730;2022-07-05T08:57:50;9.57;;;6.65;;
61295;SDS011;47168;48.104;20.730;2022-07-05T09:00:16;9.93;;;6.15;;
61295;SDS011;47168;48.104;20.730;2022-07-05T09:02:41;13.10;;;6.55;;
61295;SDS011;47168;48.104;20.730;2022-07-05T09:05:09;11.88;;;6.72;;
61295;SDS011;47168;48.104;20.730;2022-07-05T09:07:37;10.75;;;6.63;;
61295;SDS011;47168;48.104;20.730;2022-07-05T09:10:08;8.80;;;5.65;;
61295;SDS011;47168;48.104;20.730;2022-07-05T09:12:37;10.05;;;6.53;;
61295;SDS011;47168;48.104;20.730;2022-07-05T09:15:03;10.70;;;6.65;;
61295;SDS011;47168;48.104;20.730;2022-07-05T09:17:29;9.75;;;6.18;;
61295;SDS011;47168;48.104;20.730;2022-07-05T09:20:11;11.05;;;6.53;;
61295;SDS011;47168;48.104;20.730;2022-07-05T09:30:26;11.65;;;6.97;;
61295;SDS011;47168;48.104;20.730;2022-07-05T09:32:59;9.93;;;7.00;;
61295;SDS011;47168;48.104;20.730;2022-07-05T09:35:39;10.25;;;6.65;;
61295;SDS011;47168;48.104;20.730;2022-07-05T09:38:15;10.10;;;6.53;;
61295;SDS011;47168;48.104;20.730;2022-07-05T09:40:49;10.38;;;6.38;;
61295;SDS011;47168;48.104;20.730;2022-07-05T09:43:18;10.38;;;6.50;;
61295;SDS011;47168;48.104;20.730;2022-07-05T09:48:26;10.93;;;6.70;;
61295;SDS011;47168;48.104;20.730;2022-07-05T09:50:55;11.38;;;7.28;;
61295;SDS011;47168;48.104;20.730;2022-07-05T09:53:45;10.27;;;6.97;;
61295;SDS011;47168;48.104;20.730;2022-07-05T09:56:12;12.45;;;6.85;;
61295;SDS011;47168;48.104;20.730;2022-07-05T09:58:39;11.50;;;7.93;;
61295;SDS011;47168;48.104;20.730;2022-07-05T10:04:00;10.52;;;7.05;;
61295;SDS011;47168;48.104;20.730;2022-07-05T10:06:27;10.77;;;6.97;;
61295;SDS011;47168;48.104;20.730;2022-07-05T10:08:53;11.18;;;7.13;;
61295;SDS011;47168;48.104;20.730;2022-07-05T10:11:22;11.43;;;7.30;;
61295;SDS011;47168;48.104;20.730;2022-07-05T10:13:50;9.88;;;6.63;;
61295;SDS011;47168;48.104;20.730;2022-07-05T10:16:17;10.68;;;6.93;;
61295;SDS011;47168;48.104;20.730;2022-07-05T10:18:45;11.75;;;7.18;;
61295;SDS011;47168;48.104;20.730;2022-07-05T10:21:14;10.70;;;6.53;;
61295;SDS011;47168;48.104;20.730;2022-07-05T10:23:45;12.73;;;7.10;;
61295;SDS011;47168;48.104;20.730;2022-07-05T10:26:16;9.80;;;6.88;;
61295;SDS011;47168;48.104;20.730;2022-07-05T10:28:47;10.20;;;6.82;;
61295;SDS011;47168;48.104;20.730;2022-07-05T10:31:16;10.73;;;7.45;;
61295;SDS011;47168;48.104;20.730;2022-07-05T10:33:43;11.82;;;7.50;;
61295;SDS011;47168;48.104;20.730;2022-07-05T10:36:09;11.00;;;7.75;;
61295;SDS011;47168;48.104;20.730;2022-07-05T10:38:36;11.75;;;6.95;;
61295;SDS011;47168;48.104;20.730;2022-07-05T10:41:04;10.88;;;7.40;;
61295;SDS011;47168;48.104;20.730;2022-07-05T10:43:32;10.68;;;7.22;;
61295;SDS011;47168;48.104;20.730;2022-07-05T10:45:57;10.90;;;7.25;;
61295;SDS011;47168;48.104;20.730;2022-07-05T10:48:26;12.05;;;7.18;;
61295;SDS011;47168;48.104;20.730;2022-07-05T10:50:56;10.73;;;7.50;;
61295;SDS011;47168;48.104;20.730;2022-07-05T10:53:27;13.85;;;7.40;;
61295;SDS011;47168;48.104;20.730;2022-07-05T10:58:28;12.73;;;8.00;;
61295;SDS011;47168;48.104;20.730;2022-07-05T11:06:08;12.15;;;7.82;;
61295;SDS011;47168;48.104;20.730;2022-07-05T11:13:53;10.90;;;7.63;;
61295;SDS011;47168;48.104;20.730;2022-07-05T11:16:23;11.52;;;7.63;;
61295;SDS011;47168;48.104;20.730;2022-07-05T11:19:03;11.40;;;7.80;;
61295;SDS011;47168;48.104;20.730;2022-07-05T11:21:31;10.27;;;7.15;;
61295;SDS011;47168;48.104;20.730;2022-07-05T11:26:49;12.88;;;7.32;;
61295;SDS011;47168;48.104;20.730;2022-07-05T11:32:12;10.10;;;7.57;;
61295;SDS011;47168;48.104;20.730;2022-07-05T11:34:40;11.27;;;7.38;;
61295;SDS011;47168;48.104;20.730;2022-07-05T11:39:44;14.38;;;7.10;;
61295;SDS011;47168;48.104;20.730;2022-07-05T11:42:14;13.10;;;7.32;;
61295;SDS011;47168;48.104;20.730;2022-07-05T11:44:45;11.30;;;7.57;;
61295;SDS011;47168;48.104;20.730;2022-07-05T11:47:15;13.10;;;7.30;;
61295;SDS011;47168;48.104;20.730;2022-07-05T11:49:43;12.55;;;8.35;;
61295;SDS011;47168;48.104;20.730;2022-07-05T11:52:24;11.77;;;8.07;;
61295;SDS011;47168;48.104;20.730;2022-07-05T11:54:50;10.88;;;8.40;;
61295;SDS011;47168;48.104;20.730;2022-07-05T11:57:17;11.77;;;7.50;;
61295;SDS011;47168;48.104;20.730;2022-07-05T11:59:44;12.00;;;7.88;;
61295;SDS011;47168;48.104;20.730;2022-07-05T12:02:09;11.40;;;7.68;;
61295;SDS011;47168;48.104;20.730;2022-07-05T12:04:34;12.38;;;7.55;;
61295;SDS011;47168;48.104;20.730;2022-07-05T12:07:00;12.65;;;7.40;;
61295;SDS011;47168;48.104;20.730;2022-07-05T12:09:27;12.25;;;8.25;;
61295;SDS011;47168;48.104;20.730;2022-07-05T12:12:12;12.45;;;7.68;;
61295;SDS011;47168;48.104;20.730;2022-07-05T12:15:04;12.63;;;7.80;;
61295;SDS011;47168;48.104;20.730;2022-07-05T12:17:33;11.27;;;7.85;;
61295;SDS011;47168;48.104;20.730;2022-07-05T12:19:58;12.68;;;8.20;;
61295;SDS011;47168;48.104;20.730;2022-07-05T12:24:57;12.05;;;7.95;;
61295;SDS011;47168;48.104;20.730;2022-07-05T12:27:24;12.55;;;8.63;;
61295;SDS011;47168;48.104;20.730;2022-07-05T12:29:53;12.95;;;8.48;;
61295;SDS011;47168;48.104;20.730;2022-07-05T12:32:20;14.02;;;9.00;;
61295;SDS011;47168;48.104;20.730;2022-07-05T12:34:45;12.27;;;8.82;;
61295;SDS011;47168;48.104;20.730;2022-07-05T12:37:19;11.88;;;8.15;;
61295;SDS011;47168;48.104;20.730;2022-07-05T12:39:46;12.50;;;8.23;;
61295;SDS011;47168;48.104;20.730;2022-07-05T12:42:29;11.43;;;8.27;;
61295;SDS011;47168;48.104;20.730;2022-07-05T12:45:10;12.02;;;8.43;;
61295;SDS011;47168;48.104;20.730;2022-07-05T12:47:54;11.75;;;8.63;;
61295;SDS011;47168;48.104;20.730;2022-07-05T12:50:20;11.63;;;8.20;;
61295;SDS011;47168;48.104;20.730;2022-07-05T12:53:33;12.63;;;8.40;;
61295;SDS011;47168;48.104;20.730;2022-07-05T12:56:08;13.80;;;8.43;;
61295;SDS011;47168;48.104;20.730;2022-07-05T12:59:00;10.88;;;7.72;;
61295;SDS011;47168;48.104;20.730;2022-07-05T13:01:31;11.57;;;8.13;;
61295;SDS011;47168;48.104;20.730;2022-07-05T13:04:07;13.70;;;8.05;;
61295;SDS011;47168;48.104;20.730;2022-07-05T13:06:49;12.52;;;8.75;;
61295;SDS011;47168;48.104;20.730;2022-07-05T13:14:32;13.02;;;8.10;;
61295;SDS011;47168;48.104;20.730;2022-07-05T13:16:59;11.07;;;7.88;;
61295;SDS011;47168;48.104;20.730;2022-07-05T13:19:24;11.98;;;8.20;;
61295;SDS011;47168;48.104;20.730;2022-07-05T13:21:50;12.30;;;7.75;;
61295;SDS011;47168;48.104;20.730;2022-07-05T13:24:15;11.70;;;7.57;;
61295;SDS011;47168;48.104;20.730;2022-07-05T13:26:40;12.77;;;9.23;;
61295;SDS011;47168;48.104;20.730;2022-07-05T13:29:06;12.23;;;8.30;;
61295;SDS011;47168;48.104;20.730;2022-07-05T13:31:31;14.52;;;9.13;;
61295;SDS011;47168;48.104;20.730;2022-07-05T13:33:57;17.38;;;9.35;;
61295;SDS011;47168;48.104;20.730;2022-07-05T13:36:24;13.95;;;9.13;;
61295;SDS011;47168;48.104;20.730;2022-07-05T13:38:49;12.82;;;9.00;;
61295;SDS011;47168;48.104;20.730;2022-07-05T13:41:15;13.10;;;8.52;;
61295;SDS011;47168;48.104;20.730;2022-07-05T13:43:40;15.00;;;9.15;;
61295;SDS011;47168;48.104;20.730;2022-07-05T13:46:05;12.70;;;8.90;;
61295;SDS011;47168;48.104;20.730;2022-07-05T13:48:31;13.57;;;9.30;;
61295;SDS011;47168;48.104;20.730;2022-07-05T13:50:58;12.57;;;8.98;;
61295;SDS011;47168;48.104;20.730;2022-07-05T13:53:23;14.18;;;9.57;;
61295;SDS011;47168;48.104;20.730;2022-07-05T13:55:49;13.18;;;9.35;;
61295;SDS011;47168;48.104;20.730;2022-07-05T13:58:14;12.32;;;8.07;;
61295;SDS011;47168;48.104;20.730;2022-07-05T14:00:39;11.45;;;6.85;;
61295;SDS011;47168;48.104;20.730;2022-07-05T14:03:05;12.00;;;5.35;;
61295;SDS011;47168;48.104;20.730;2022-07-05T14:05:30;8.80;;;5.70;;
61295;SDS011;47168;48.104;20.730;2022-07-05T14:07:56;8.95;;;5.35;;
61295;SDS011;47168;48.104;20.730;2022-07-05T14:10:21;10.75;;;5.65;;
61295;SDS011;47168;48.104;20.730;2022-07-05T14:12:46;10.30;;;5.45;;
61295;SDS011;47168;48.104;20.730;2022-07-05T14:15:12;10.60;;;6.00;;
61295;SDS011;47168;48.104;20.730;2022-07-05T14:17:37;9.20;;;5.80;;
61295;SDS011;47168;48.104;20.730;2022-07-05T14:20:04;11.55;;;6.13;;
61295;SDS011;47168;48.104;20.730;2022-07-05T14:22:30;13.85;;;6.45;;
61295;SDS011;47168;48.104;20.730;2022-07-05T14:24:55;16.67;;;7.07;;
61295;SDS011;47168;48.104;20.730;2022-07-05T14:27:21;17.08;;;8.18;;
61295;SDS011;47168;48.104;20.730;2022-07-05T14:29:46;18.42;;;7.32;;
61295;SDS011;47168;48.104;20.730;2022-07-05T14:32:11;13.05;;;6.63;;
61295;SDS011;47168;48.104;20.730;2022-07-05T14:34:37;14.82;;;7.70;;
61295;SDS011;47168;48.104;20.730;2022-07-05T14:37:02;16.92;;;8.30;;
61295;SDS011;47168;48.104;20.730;2022-07-05T14:39:27;12.70;;;7.28;;
61295;SDS011;47168;48.104;20.730;2022-07-05T14:41:53;14.35;;;7.15;;
61295;SDS011;47168;48.104;20.730;2022-07-05T14:44:19;13.52;;;7.18;;
61295;SDS011;47168;48.104;20.730;2022-07-05T14:46:45;13.82;;;7.40;;
61295;SDS011;47168;48.104;20.730;2022-07-05T14:49:10;14.00;;;7.75;;
61295;SDS011;47168;48.104;20.730;2022-07-05T14:51:36;12.60;;;7.65;;
61295;SDS011;47168;48.104;20.730;2022-07-05T14:54:02;12.60;;;7.63;;
61295;SDS011;47168;48.104;20.730;2022-07-05T14:56:30;19.17;;;8.13;;
61295;SDS011;47168;48.104;20.730;2022-07-05T14:59:02;11.68;;;7.38;;
61295;SDS011;47168;48.104;20.730;2022-07-05T15:01:28;14.85;;;8.00;;
61295;SDS011;47168;48.104;20.730;2022-07-05T15:03:53;14.00;;;7.88;;
61295;SDS011;47168;48.104;20.730;2022-07-05T15:06:19;14.10;;;8.48;;
61295;SDS011;47168;48.104;20.730;2022-07-05T15:08:47;13.30;;;8.40;;